CTH7 weather

Rivière-aux-Saumons Aerodrome (Private Operator: Safari Anticosti)
Rivière-aux-Saumons, Quebec, Canada

Public forecast

Using degrees Celsius for public forecast. Weather courtesy of forecast.io.

METAR (pilot weather report)

Closest report is Natashquan Airport, 51.2 nm (94.9 km) NNE. Retrieved 2019/09/15 05:00 UTC (13 minutes ago):

CYNA 150500Z AUTO 17005KT 9SM OVC011 11/10 A2991 RMK SLP132

TAF (pilot weather forecast)

Closest forecast is Natashquan Airport, 51.2 nm (94.9 km) NNE. Retrieved 2019/09/15 02:00 UTC (3 hours ago):

TAF CYNA 150139Z 1502/1514 20010KT P6SM OVC015 TEMPO 1502/1514 5SM -SHRA BR SCT003 OVC008 PROB40 1502/1514 1SM -RA BR OVC003 RMK FCST BASED ON AUTO OBS. NXT FCST BY 150800Z